Сибирь

Регион "Восточная Сибирь" – сибирский макрорегион, который объединяет территории нескольких субъектов России (Новосибирская и Иркутская области, Красноярский край) и является частью территориальной структуры дивизиона VATRUS сети VATSIM.

Регион "Восточная Сибирь" включает в себя РегЦ Новосибирск, РегЦ Красноярск и РегЦ Иркутск, которые вместе покрывают воздушное пространство над территорией Сибирского федерального округа России общей площадью более 5 млн км. На территории макрорегиона располагаются более десятка международных аэропортов федерального значения. В верхнем воздушном пространстве РегЦ Новосибирск и РегЦ Красноярск проходят транссибирские трассы, обеспечивающие транзитный поток воздушных судов из Европы и Северной Америки в Азию и обратно. Воздушные трассы соединяют воздушное пространство России с воздушными пространствами Монголии, Китая и Казахстана.

В сети VATSIM обслуживание воздушного движения над территорией макрорегиона осуществляет позиция RU-ESC_FSS, позывной "Сибирь-Контроль", частота 135.225.

Лого Сибирь
Руководство

Aleksey Nevzorov

Куратор
Контакты

FSS региона
Обозначение
RU-ESC_FSS
Позывной
Сибирь-Контроль
Частота
135.225
Примечание
Top-down
Инструкторы региона
Aleksey Nevzorov (Instructor)
Alexandr Khodyrev * (Controller)
Andrey Morozov * (Controller)
Anton Myglan (Senior Instructor)
Dmitriy Kabushev * (Senior Student)
Kirill Ivanov * (Controller)
Kirill Shabunin * (Senior Controller)
Mikhail Gogolev (Instructor)
Sergey Arkasov (Instructor)
Включает в себя

РПИ Иркутск
РПИ Красноярск
РПИ Новосибирск

Диспетчеры региона

Диспетчер Рейтинг Допуски *
Aleksey Nevzorov Instructor UIII_CTR , UNKL_CTR , UNNT_CTR
Alexandr Khodyrev Controller UIII_CTR , UNKL_CTR
Alexandr Timoshin Controller UIII_CTR , UNKL_CTR
Alexei Gladilin Controller UIII_CTR , UNKL_CTR , UNNT_CTR
Alexey Arkasov Controller UIII_CTR , UNKL_CTR , UNNT_CTR
Andrey Morozov Controller UIII_CTR , UNNT_CTR , UNKL_APP(UNKL+UNKM)
Artem Smychkov Instructor UIII_CTR , UNKL_CTR , UNNT_CTR
Artem Tsendrovsky Senior Student UNNT_CTR  *, UIII_APP, UNKL_APP(UNKL+UNKM) , UNNT_APP, UNOO_APP
Dmitriy Kabushev Senior Student UNKL_CTR  *, UIII_APP, UNOO_TWR, UNNT_APP, UNTT_TWR
Ivan Chokenyuk Controller UIII_CTR , UNKL_CTR , UNNT_CTR
Ivan Kobka Controller UIII_CTR , UNKL_CTR , UNNT_CTR
Kirill Ivanov Controller UIII_CTR , UNKL_CTR , UNNT_CTR
Kirill Shabunin Senior Controller UNKL_CTR , UNNT_CTR
Mikhail Gogolev Instructor UIII_CTR , UNKL_CTR , UNNT_CTR
Sergey Arkasov Instructor UIII_CTR , UNKL_CTR , UNNT_CTR
Tigran Areian Controller UNKL_CTR , UNNT_CTR
Timofey Abramchuck Senior Student UNNT_CTR  *, UIII_APP, UNKL_APP(UNKL+UNKM) , UNEE_APP, UNOO_APP, UNNT_TWR
Aidar Aznaurov Student UIII_GND
Aleksandr Suraev Student UNKL_GND
Alexander Sharonov Student UNNT_GND
Alexander Veretentsev Student 2 UNKL_TWR, UNNT_R_APP*, UNOO_TWR, UNEE_TWR!!!
Alexandr Andreev Student UNNT_GND
Alexandr Belyakov Student 2 UIAA_TWR, UIII_TWR, UIBB_TWR, UIUU_TWR, UNKL_TWR, UOOO_TWR!!!, UNEE_TWR!!!
Alexandr Nikolaev Student UNNT_GND, UNNT_TWR*
Alexey Rodionov Student 2 UIII_TWR, UNKL_TWR, UNNT_R_APP*
Alina Sycheva Student UNKL_GND, UNKL_TWR*
Anatoly Margach Student UNNT_GND
Andrei Garin Student UIII_GND
Andrey Guz Student UNNT_GND
Andrey Mikhaylov Student UNOO_GND, UNNT_TWR*
Arseniy Kucheev Student 2 UIII_TWR, UNNT_R_APP*, UNNT_TWR, UNEE_TWR, UNOO_TWR, UNWW_TWR, UNBG_TWR
Arseniy Pankratov Student UNKL_TWR*, UNKL_GND
Arseny Epikhin Student 2 UIII_TWR, UNKL_TWR, UNKL_R_APP(UNKL+UNKM) , UNNT_TWR
Artem Glinchikov Student UNNT_GND, UNNT_TWR*
Artem Ponomarov Student 2 UNNT_GND, UNNT_TWR*
Artemiy Golushcov Student UNNT_GND
Artyom Neustupov Student UIII_GND
Artyom Shevtsov Student UNKL_GND, UNKL_TWR*
Artyom Shinkevich Student UNNT_GND
Artyom Sibiryakov Student UNKL_GND, UNKL_TWR*
Ayaz Gadilshin Student UNNT_GND
Bogdan Mavrodiev Student UNNT_GND
Boris Yakunin Senior Student UNKL_APP(UNKL+UNKM) , UNNT_APP
Daniil Bulavin Student UNNT_GND
Daniil Gargalyk Student UNNT_GND
Daniil Platonov Student UNNT_TWR*, UNNT_GND
Danil Yazvitskiy Student UNNT_GND
Denis Shipilov Student UIII_GND
Dmitriy Egorushin Student UIII_GND
Dmitriy Shigaev Student 2 UIII_TWR, UNKL_R_APP(UNKL+UNKM) , UNKL_GND
Dmitriy Yanov Student UNNT_GND
Efim Varavin Student UNKL_GND
Egor Beletsky Student 2 UNNT_TWR
Egor Filippov Student UNNT_TWR*, UNNT_GND
Egor Panov Student UNNT_GND
Egor Rykov Student UNNT_GND
Egor Sarin Student UNNT_GND
Evelina Kravchenko Student UNKL_GND
Evgeny Listratov Senior Student UNKL_APP(UNKL+UNKM) , UNNT_APP, UNOO_APP
Fedya eremin Student UNKL_GND
Georgi Denisov Student UNNT_GND
Gleb Nedostupov Student UIII_GND
Igor Murashkin Student UNNT_GND
Igor Zarubin Student UIII_GND
Ilia Lobanov Student UNNT_GND
Ilia Vasilev Student UNNT_GND
Ilya Kopylov Student UNNT_TWR*
Ivan Grabovskiy Unknown UIII_GND
Kirill Gerasimchuk Student UIII_GND
Kirill Khan Student UNNT_GND
Kirill Kirsanov Student UNKL_GND, UNKL_TWR*
Kirill Shishkin Student UNNT_TWR*, UNNT_GND
Klim Pravdin Student UNNT_TWR*
Konstantin Bednov Student 2 UNKL_TWR, UNNT_R_APP*, UNOO_TWR, UNNT_TWR
Konstantin Vyazovov Student UNKL_GND
Maksim Shemelin Student 2 UIII_TWR*, UIII_GND, UNKL_TWR, UNNT_TWR
Maksim Tretyakov Student 2 UOOO_TWR!!!, UNNT_R_APP*, UNNT_TWR
Maria Kozlova Student UIII_GND
Marina Pavlova Student UNKL_GND
Mark Kalashnikov Student 2 UIII_TWR, UNTT_TWR, UNOO_TWR, UNNT_APP*
Mark Marisov Student 2 UNKL_TWR, UNNT_APP*, UNNT_TWR
Matvei Korshunov Student UNNT_GND
Matvey Skuratov Student UNNT_TWR*, UNNT_GND
Maxim Ivanishchev Senior Student UNNT_APP
Mikhail Arkasov Student UNNT_TWR*, UNNT_GND
Mikhail Kondrashov Student UNKL_GND
Mikhail Pompushko Senior Student UIII_APP, UITT_TWR, UNKL_APP(UNKL+UNKM) , UNWW_APP, UNNT_APP, UNSS_R_APP, UNBG_TWR
Mikhail Shishkin Student UNNT_GND
Mikhail Shorokhov Student UNNT_GND
Misha Mishcenko Student UNNT_GND
Nikita Krendelev Student UNNT_GND
Nikita Naumenko Student UIII_GND
Nikita Razumov Student 2 UIII_TWR, UIAA_TWR, UIII_GND, UIII_R_APP*, UIUU_TWR, UIBB_TWR, UNKL_TWR, UNOO_GND, UNNT_TWR
Nikoloz Kutateladze Student 2 UNKL_R_APP(UNKL+UNKM) , UNKL_TWR
Pavel Shibaev Student UNKL_GND
Rinal Shakirov Student UNNT_GND
Roman Askerov Student UNNT_GND
Roman Elsukov Student UNNT_GND
Sergei Stach Student UNNT_GND
Sergey Konstantinov Student UNKL_GND
Sergey Milyaev Student UNNT_GND
Spartak Vinogradov Student UNKL_GND
Timofei Degtyar Student 2 UIII_TWR, UNNT_TWR, UNNT_APP*, UNOO_TWR
Timofey Krivenko Student 2 UIII_R_APP*, UIII_TWR, UIAA_TWR, UNKL_TWR
Timur Doreuli Student UNKL_GND
Timur Matiev Student UIII_GND
Timur Sorov Student 2 UIII_TWR, UIUU_TWR, UIAA_TWR, UNKL_TWR, UNNT_R_APP*, UNNT_TWR, UNBB_TWR
Vadim Biskupskiy Senior Student UNKL_APP(UNKL+UNKM)
Vadim Kostromskiy Student UNNT_GND
Valerii Diakov Student 2 UNWW_TWR
Vitaliy Barinov Student UNKL_TWR*, UNKL_GND
Vlad Davydov Student UNKL_GND
vlad vartanov Student UNNT_GND
Yaroslav Akhmanaev Student UNNT_GND
Yaroslav Vasilyev Student 2 UNNT_TWR
Yulia Khudic Student UNKL_GND

Аэропорты региона

ICAO Город Название Погода
UNKL Красноярск Красноярск UNKL 250730Z 22002MPS 170V260 CAVOK 05/M10 Q1024 R29/CLRD65 NOSIG RMK QFE742
UNAA Абакан Абакан UNAA 250730Z 36003MPS CAVOK 02/M12 Q1024 R02/CLRD65 NOSIG RMK QFE745
UNKS Ачинск Ачинск
UNIB Байкит Байкит
UNBB Барнаул Барнаул UNBB 250730Z 02004MPS 8000 -SHSN BKN040CB 01/M05 Q1026 R06/CLRD66 NOSIG RMK QFE746
UNIP Бор Подкаменная Тунгуска
UIBB Братск Братск UIBB 250730Z 32006MPS 280V010 9999 NSC 07/M11 Q1017 R30/CLRD60 NOSIG RMK QFE720/0960
UNIW Ванавара Ванавара
UNBG Горно-Алтайск Горно-Алтайск
UNII Енисейск Енисейск
UIBV Железногорск Железногорск
UOII Игарка Игарка
UIII Иркутск Иркутск UIII 250730Z 30010MPS CAVOK 09/M12 Q1014 R30/CLRD60 NOSIG RMK QFE716/0954
UNEE Кемерово Кемерово UNEE 250730Z 30002MPS 9999 BKN026 00/M06 Q1026 R23/////// NOSIG RMK QFE746
UNKM Красноярск-КЯС Черемшанка
UNKY Кызыл Кызыл
UNWW Новокузнецк Новокузнецк UNWW 250730Z VRB02MPS 9999 SCT040CB 00/M12 Q1026 R19/09//55 NOSIG RMK QFE742
UNNT Новосибирск Новосибирск UNNT 250730Z 36005MPS 330V050 CAVOK 08/M07 Q1026 R25/090070 R16/////// NOSIG RMK QFE760/1013
UOOO Норильск Норильск UOOO 250730Z 36006MPS 9999 FEW004 OVC030 M05/M05 Q1029 R01/810360 NOSIG RMK QFE757/1009
UNOO Омск Омск UNOO 250730Z 06004MPS 9999 SCT015 09/M08 Q1031 R07/CLRD60 NOSIG RMK QFE764
UOIG Светлогорск Светлогорск
UNIS Северо-Енисейск Северо-Енисейск
UNSS Стрежевой Стрежевой
UNTT Томск Томск UNTT 250730Z VRB01MPS 9999 FEW032 03/M05 Q1026 R21/190055 NOSIG RMK QFE754
UIUU Улан-Удэ Улан-Удэ UIUU 250730Z 32009MPS 300V010 9999 SCT046CB 08/M09 Q1011 R26/60D NOSIG RMK QFE715/0953
UITT Усть-Кут Усть-Кут
UOHH Хатанга Хатанга
UIAA Чита Чита UIAA 250730Z 23005MPS 9999 SCT040CB 06/M04 Q1003 R29/70D NOSIG RMK QFE695/0926
UNKB Богучаны Богучаны
UIKB Бодайбо Бодайбо
UIKK Киренск Киренск
UNKI Кодинск Кодинск
UIUN Нижнеангарск Нижнеангарск
UECT Талакан Талакан
UNIT Тура Горный
UOTT Туруханск Туруханск
UIBS Усть-Илимск Усть-Илимск
UIAR Чара Чара
UNAU Шушенское Шушенское